Time;durP1;ratioP1;P1;durP2;ratioP2;P2;SDS_P1;SDS_P2;PMS_P1;PMS_P2;Temp;Humidity;BMP_temperature;BMP_pressure;BME280_temperature;BME280_humidity;BME280_pressure;Samples;Min_cycle;Max_cycle;Signal;HPM_P1;HPM_P2
2020/12/25 00:00:25;;;;;;;;;;;1.00;99.90;;;;;;5019154;28;19951;-76
2020/12/25 00:02:52;;;;;;;;;;;0.90;99.90;;;;;;5019064;28;19979;-76
2020/12/25 00:05:19;;;;;;;;;;;0.90;99.90;;;;;;5018887;28;20354;-76
2020/12/25 00:07:45;;;;;;;;;;;0.80;99.90;;;;;;5019150;28;19925;-75
2020/12/25 00:10:11;;;;;;;;;;;0.80;99.90;;;;;;5018985;28;19925;-75
2020/12/25 00:12:37;;;;;;;;;;;0.80;99.90;;;;;;5018827;28;20317;-75
2020/12/25 00:15:04;;;;;;;;;;;0.80;99.90;;;;;;5018786;28;19925;-75
2020/12/25 00:17:30;;;;;;;;;;;0.80;99.90;;;;;;5018701;28;19925;-76
2020/12/25 00:19:57;;;;;;;;;;;0.70;99.90;;;;;;5018996;28;19926;-75
2020/12/25 00:22:23;;;;;;;;;;;0.70;99.90;;;;;;5018728;28;19925;-76
2020/12/25 00:24:50;;;;;;;;;;;0.70;99.90;;;;;;5018667;28;20365;-76
2020/12/25 00:27:16;;;;;;;;;;;0.70;99.90;;;;;;5018687;28;19991;-76
2020/12/25 00:29:42;;;;;;;;;;;0.70;99.90;;;;;;5018591;28;20029;-76
2020/12/25 00:32:08;;;;;;;;;;;0.70;99.90;;;;;;5018519;28;20335;-75
2020/12/25 00:34:35;;;;;;;;;;;0.70;99.90;;;;;;5018614;28;19925;-75
2020/12/25 00:37:02;;;;;;;;;;;0.70;99.90;;;;;;5018307;28;19925;-76
2020/12/25 00:39:28;;;;;;;;;;;0.70;99.90;;;;;;5018750;28;19936;-75
2020/12/25 00:41:54;;;;;;;;;;;0.70;99.90;;;;;;5018004;28;19926;-76
2020/12/25 00:44:21;;;;;;;;;;;0.70;99.90;;;;;;5018355;28;19925;-76
2020/12/25 00:46:47;;;;;;;;;;;0.70;99.90;;;;;;5018185;28;19936;-76
2020/12/25 00:49:13;;;;;;;;;;;0.60;99.90;;;;;;5018394;28;20057;-76
2020/12/25 00:51:39;;;;;;;;;;;0.60;99.90;;;;;;5018408;28;19926;-76
2020/12/25 00:54:07;;;;;;;;;;;0.70;99.90;;;;;;5018160;28;19937;-76
2020/12/25 00:56:33;;;;;;;;;;;0.70;99.90;;;;;;5017584;28;19983;-76
2020/12/25 00:58:59;;;;;;;;;;;0.70;99.90;;;;;;5017861;28;20000;-76
2020/12/25 01:01:25;;;;;;;;;;;0.70;99.90;;;;;;5018031;28;20262;-76
2020/12/25 01:03:52;;;;;;;;;;;0.80;99.90;;;;;;5018195;28;19987;-76
2020/12/25 01:06:18;;;;;;;;;;;0.90;99.90;;;;;;5018134;28;19945;-75
2020/12/25 01:08:45;;;;;;;;;;;0.90;99.90;;;;;;5018013;28;19936;-76
2020/12/25 01:11:12;;;;;;;;;;;0.80;99.90;;;;;;5017736;28;20370;-76
2020/12/25 01:13:39;;;;;;;;;;;0.90;99.90;;;;;;5017990;28;20232;-76
2020/12/25 01:16:05;;;;;;;;;;;1.00;99.90;;;;;;5017662;28;19926;-76
2020/12/25 01:18:31;;;;;;;;;;;1.00;99.90;;;;;;5017881;28;19936;-76
2020/12/25 01:20:57;;;;;;;;;;;1.00;99.90;;;;;;5017631;28;19925;-76
2020/12/25 01:23:24;;;;;;;;;;;1.00;99.90;;;;;;5018013;28;19971;-76
2020/12/25 01:25:50;;;;;;;;;;;1.00;99.90;;;;;;5017940;28;19933;-76
2020/12/25 01:28:17;;;;;;;;;;;1.00;99.90;;;;;;5017528;28;20358;-76
2020/12/25 01:30:43;;;;;;;;;;;1.00;99.90;;;;;;5017265;28;20389;-76
2020/12/25 01:33:10;;;;;;;;;;;1.00;99.90;;;;;;5017712;28;19925;-76
2020/12/25 01:35:36;;;;;;;;;;;1.00;99.90;;;;;;5025443;28;19924;-80
2020/12/25 01:38:03;;;;;;;;;;;1.00;99.90;;;;;;5038851;28;19944;-81
2020/12/25 01:40:29;;;;;;;;;;;1.10;99.90;;;;;;5039558;28;19931;-81
2020/12/25 01:42:55;;;;;;;;;;;1.10;99.90;;;;;;5039123;28;19925;-81
2020/12/25 01:45:22;;;;;;;;;;;1.10;99.90;;;;;;5039147;28;19932;-81
2020/12/25 01:47:48;;;;;;;;;;;1.10;99.90;;;;;;5039586;28;19933;-81
2020/12/25 01:50:15;;;;;;;;;;;1.10;99.90;;;;;;5039741;28;19916;-81
2020/12/25 01:52:41;;;;;;;;;;;1.00;99.90;;;;;;5039539;28;19909;-81
2020/12/25 01:55:07;;;;;;;;;;;1.00;99.90;;;;;;5039751;28;19935;-81
2020/12/25 01:57:34;;;;;;;;;;;1.00;99.90;;;;;;5039717;28;19937;-81
2020/12/25 02:00:00;;;;;;;;;;;0.90;99.90;;;;;;5038953;28;19909;-81
2020/12/25 02:02:27;;;;;;;;;;;0.80;99.90;;;;;;5039317;28;19935;-81
2020/12/25 02:04:53;;;;;;;;;;;0.80;99.90;;;;;;5038632;28;19933;-81
2020/12/25 02:07:19;;;;;;;;;;;0.70;99.90;;;;;;5038070;28;19926;-81
2020/12/25 02:09:46;;;;;;;;;;;0.70;99.90;;;;;;5036337;28;20293;-81
2020/12/25 02:12:12;;;;;;;;;;;0.60;99.90;;;;;;5036702;28;19925;-81
2020/12/25 02:14:38;;;;;;;;;;;0.60;99.90;;;;;;5036555;28;19933;-81
2020/12/25 02:17:04;;;;;;;;;;;0.60;99.90;;;;;;5036951;28;19925;-80
2020/12/25 02:19:32;;;;;;;;;;;0.60;99.90;;;;;;5035942;28;19933;-80
2020/12/25 02:21:59;;;;;;;;;;;0.50;99.90;;;;;;5035666;28;19925;-81
2020/12/25 02:24:25;;;;;;;;;;;0.50;99.90;;;;;;5036122;28;19926;-80
2020/12/25 02:26:51;;;;;;;;;;;0.50;99.90;;;;;;5034877;28;19948;-80
2020/12/25 02:29:18;;;;;;;;;;;0.40;99.90;;;;;;5036129;28;19925;-81
2020/12/25 02:31:44;;;;;;;;;;;0.40;99.90;;;;;;5016315;28;19925;-81
2020/12/25 02:34:10;;;;;;;;;;;0.40;99.90;;;;;;5016878;28;19933;-81
2020/12/25 02:36:36;;;;;;;;;;;0.30;99.90;;;;;;5024551;28;19928;-81
2020/12/25 02:39:04;;;;;;;;;;;0.30;99.90;;;;;;5055601;28;19947;-81
2020/12/25 02:41:30;;;;;;;;;;;0.30;99.90;;;;;;5053710;28;19925;-80
2020/12/25 02:43:56;;;;;;;;;;;0.30;99.90;;;;;;5055362;28;19940;-81
2020/12/25 02:46:22;;;;;;;;;;;0.30;99.90;;;;;;5055046;28;19909;-80
2020/12/25 02:48:49;;;;;;;;;;;0.20;99.90;;;;;;5056140;28;19936;-81
2020/12/25 02:51:17;;;;;;;;;;;0.20;99.90;;;;;;5054511;28;19925;-81
2020/12/25 02:53:43;;;;;;;;;;;0.20;99.90;;;;;;5054191;28;19936;-81
2020/12/25 02:56:14;;;;;;;;;;;0.20;99.90;;;;;;5055115;28;19925;-81
2020/12/25 02:58:41;;;;;;;;;;;0.10;99.90;;;;;;5055980;28;19925;-81
2020/12/25 03:01:09;;;;;;;;;;;0.10;99.90;;;;;;5055877;28;19925;-81
2020/12/25 03:03:37;;;;;;;;;;;0.10;99.90;;;;;;5055278;28;19929;-81
2020/12/25 03:06:15;;;;;;;;;;;0.10;99.90;;;;;;5055152;28;19937;-80
2020/12/25 03:08:43;;;;;;;;;;;0.00;99.90;;;;;;5038128;28;19925;-81
2020/12/25 03:11:10;;;;;;;;;;;0.00;99.90;;;;;;5053265;28;19932;-80
2020/12/25 03:13:39;;;;;;;;;;;0.00;99.90;;;;;;5053770;28;19983;-80
2020/12/25 03:16:06;;;;;;;;;;;0.00;99.90;;;;;;5054173;28;19925;-80
2020/12/25 06:03:16;;;;;;;;;;;-0.60;99.90;;;;;;5206327;23;19933;-81
2020/12/25 10:39:34;;;;;;;;;;;-0.30;99.90;;;;;;5387210;23;19925;-77
2020/12/25 10:42:00;;;;;;;;;;;-0.30;99.90;;;;;;5016209;28;19925;-77
2020/12/25 10:44:27;;;;;;;;;;;-0.30;99.90;;;;;;5016027;28;19930;-77
2020/12/25 10:46:58;;;;;;;;;;;-0.30;99.90;;;;;;5016120;28;19945;-77
2020/12/25 10:49:24;;;;;;;;;;;-0.20;99.90;;;;;;5016277;28;19936;-77
2020/12/25 10:51:51;;;;;;;;;;;-0.20;99.90;;;;;;5016047;28;19933;-77
